Terminal Aerodrome Forecast
Issued by NWS Nashville, TN

Home | Current Version | Previous Version | Text Only | Print | Product List | Glossary On
Versions: 1 2 3 4 5 6 7 8 9 10 11 12 13 14 15 16 17 18 19
402
FTUS44 KOHX 231720
TAFCSV
TAF
KCSV 231720Z 2318/2418 26010KT 6SM -SHRA SCT015 BKN025
     FM240000 22006KT P6SM SCT015 BKN035
     FM241200 27010G17KT P6SM SCT025 BKN035=

USA.gov is the U.S. government's official web portal to all federal, state and local government web resources and services.